Detalii statie SOMALEX GHIMPATI [0000198E]

Condiții climatice - Boli

Date Temperatura solului [C]Precipitatii [mm]HC Air temperature [C]HC Relative humidity [%]
medieminmaxsumamedieminmaxmedie
2019-04-19 19:00:00 10.8 10.8 10.8 0 8.98 8.95 9.01 100
2019-04-19 19:10:00 10.8 10.8 10.8 0 8.8 8.75 8.85 100
2019-04-19 19:20:00 10.7 10.7 10.8 0 8.7 8.7 8.71 100
2019-04-19 19:30:00 10.7 10.7 10.7 0 8.75 8.75 8.76 100
2019-04-19 19:40:00 10.7 10.7 10.7 0 8.68 8.67 8.69 100
2019-04-19 19:50:00 10.5 10.5 10.6 0 8.44 8.38 8.5 100
2019-04-19 20:00:00 10.6 10.6 10.6 0 8.48 8.38 8.58 100
2019-04-19 20:10:00 10.6 10.5 10.7 0 8.64 8.64 8.65 100
2019-04-19 20:20:00 10.6 10.6 10.7 0 8.52 8.46 8.59 100
2019-04-19 20:30:00 10.5 10.5 10.6 0 8.4 8.38 8.42 100
2019-04-19 20:40:00 10.4 10.3 10.5 0 8.57 8.5 8.64 100
2019-04-19 20:50:00 10.3 10.3 10.3 0 8.45 8.39 8.51 100
2019-04-19 21:00:00 10.3 10.3 10.3 0 8.23 8.2 8.26 100
2019-04-19 21:10:00 10.3 10.3 10.3 0 8.31 8.28 8.35 100
2019-04-19 21:20:00 10.4 10.4 10.4 0 8.31 8.27 8.35 100
2019-04-19 21:30:00 10.3 10.2 10.4 0 8.11 8.09 8.14 100
2019-04-19 21:40:00 10.2 10.2 10.2 0 7.98 7.95 8.02 100
2019-04-19 21:50:00 10.1 10.1 10.2 0 7.9 7.89 7.92 100
2019-04-19 22:00:00 10.2 10.1 10.3 0 7.8 7.77 7.84 100
2019-04-19 22:10:00 10.1 10.1 10.1 0 7.58 7.55 7.62 100
2019-04-19 22:20:00 10 10 10.1 0 7.47 7.45 7.49 100
2019-04-19 22:30:00 10 10 10.1 0 7.28 7.22 7.35 98.77
2019-04-19 22:40:00 10 10 10 0 7 6.94 7.06 85.4
2019-04-19 22:50:00 9.9 9.9 10 0 6.79 6.76 6.82 86.83
2019-04-19 23:00:00 9.8 9.7 9.9 0 6.69 6.67 6.72 83.83
2019-04-19 23:10:00 9.8 9.8 9.9 0 6.45 6.35 6.55 94.54
2019-04-19 23:20:00 9.9 9.9 9.9 0 6.31 6.31 6.31 83.65
2019-04-19 23:30:00 9.9 9.9 9.9 0 6.25 6.23 6.27 75.55
2019-04-19 23:40:00 9.8 9.8 9.9 0 6.17 6.17 6.18 73.84
2019-04-19 23:50:00 9.7 9.7 9.8 0 6.07 6.03 6.12 74.05
2019-04-20 00:00:00 9.8 9.8 9.8 0 6.05 6.04 6.07 74.17
2019-04-20 00:10:00 9.5 9.5 9.6 0 6 5.96 6.05 74
2019-04-20 00:20:00 9.7 9.7 9.7 0 5.99 5.95 6.04 73.95
2019-04-20 00:30:00 9.5 9.5 9.5 0 6.09 6.08 6.11 36.68
2019-04-20 00:40:00 9.5 9.5 9.6 0 6.22 6.18 6.26 0
2019-04-20 00:50:00 9.5 9.5 9.6 0 6.31 6.29 6.34 0
2019-04-20 01:00:00 9.4 9.4 9.4 0 6.23 6.2 6.26 0
2019-04-20 01:10:00 9.4 9.4 9.4 0 6.18 6.17 6.19 0
2019-04-20 01:20:00 9.4 9.4 9.4 0 6.28 6.26 6.3 0
2019-04-20 01:30:00 9.4 9.4 9.4 0 5.96 5.85 6.08 0
2019-04-20 01:40:00 9.4 9.4 9.4 0 5.68 5.66 5.71 0
2019-04-20 01:50:00 9.3 9.3 9.4 0 5.6 5.6 5.6 0
2019-04-20 02:00:00 9.3 9.3 9.3 0 5.65 5.62 5.68 0
2019-04-20 02:10:00 9.3 9.3 9.3 0 5.78 5.76 5.8 0
2019-04-20 02:20:00 9.2 9.1 9.3 0 5.82 5.82 5.83 0
2019-04-20 02:30:00 9.1 9.1 9.2 0 5.87 5.84 5.9 0
2019-04-20 02:40:00 9.1 9.1 9.2 0 6 5.98 6.02 0
2019-04-20 02:50:00 9.1 9 9.2 0 6.03 6.03 6.03 73.41